Blythe Airport Blythe US
ICAO: KBLH
IATA: BLH
Category: Medium
Scheduled Services: No

Elevation: 399 ft
TransAlt. 18000 ft.

Airport Communications:
ASOS:120.175
LOS ANGELES CNTR:128.15
RIVERSIDE RDO:122.4
CTAF/UNICOM:122.8

KBLH Zoom In..

If Map Doesn't Load, Click Here

Runways:

(A) RW 08 length 6543 ft width 150 ft
---- / hdg 77

(B) RW 17 length 5800 ft width 100 ft
---- / hdg 167

(C) RW 26 length 6543 ft width 150 ft
---- / hdg 257

(D) RW 35 length 5800 ft width 100 ft
---- / hdg 347

Location; KBLH
Day. 21 / Time. 13.52 Zulu
* Altimeter: 29.90
* Temperature: 27° c. 80.6°f.
* Wind from: 080° Speed 03 kn.
Dewpoint: 19° c.
Visibility: 10 Statute Miles.
Clouds: Clear (automated report).

KBLH 211352Z AUTO 08003KT 10SM CLR 27/19 A2990 RMK AO2 SLP116 T02670194


Wind From 080°
Speed 03 kn.

 
 
jpsmedia.com for Web Design worldairports.se 2018   terms of use